Time;durP1;ratioP1;P1;durP2;ratioP2;P2;SDS_P1;SDS_P2;PMS_P1;PMS_P2;Temp;Humidity;BMP_temperature;BMP_pressure;BME280_temperature;BME280_humidity;BME280_pressure;Samples;Min_cycle;Max_cycle;Signal;HPM_P1;HPM_P2
2023/03/27 00:00:28;;;;;;;2.63;1.27;;;;;;;5.88;100.00;97807.88;5001008;28;21436;-59
2023/03/27 00:02:56;;;;;;;2.03;1.43;;;;;;;5.94;100.00;97812.50;4997911;28;20232;-59
2023/03/27 00:05:23;;;;;;;2.63;1.43;;;;;;;5.96;100.00;97820.13;5000826;28;20225;-58
2023/03/27 00:07:51;;;;;;;5.17;1.37;;;;;;;5.90;100.00;97822.31;4996175;28;20220;-59
2023/03/27 00:10:19;;;;;;;3.50;1.70;;;;;;;5.91;100.00;97828.31;4999028;28;20240;-58
2023/03/27 00:12:46;;;;;;;3.00;1.33;;;;;;;5.86;100.00;97833.91;4999121;28;20673;-59
2023/03/27 00:15:15;;;;;;;3.30;1.57;;;;;;;5.94;100.00;97842.75;4998956;28;20227;-59
2023/03/27 00:17:45;;;;;;;2.23;1.00;;;;;;;5.89;100.00;97844.00;4991209;28;20283;-59
2023/03/27 00:20:12;;;;;;;2.30;1.47;;;;;;;5.90;100.00;97850.00;4986819;28;20235;-59
2023/03/27 00:22:39;;;;;;;1.93;1.17;;;;;;;5.86;100.00;97854.63;4999681;28;20723;-58
2023/03/27 00:25:07;;;;;;;1.77;1.03;;;;;;;5.92;100.00;97858.47;4996426;28;20811;-58
2023/03/27 00:27:35;;;;;;;2.10;0.97;;;;;;;5.93;100.00;97870.44;4997997;28;20267;-59
2023/03/27 00:30:04;;;;;;;1.40;1.03;;;;;;;5.88;100.00;97877.81;4982653;28;20221;-57
2023/03/27 00:32:31;;;;;;;1.53;1.13;;;;;;;5.89;100.00;97879.47;5001042;28;20232;-58
2023/03/27 00:34:57;;;;;;;1.30;0.80;;;;;;;5.86;100.00;97877.94;4978719;28;20232;-56
2023/03/27 00:37:24;;;;;;;4.00;0.77;;;;;;;5.87;100.00;97883.97;4985142;28;20696;-59
2023/03/27 00:39:58;;;;;;;1.50;0.97;;;;;;;5.87;100.00;97887.34;4975683;28;20248;-59
2023/03/27 00:42:29;;;;;;;2.17;0.90;;;;;;;5.85;100.00;97886.66;4994940;28;20692;-59
2023/03/27 00:45:01;;;;;;;1.47;0.80;;;;;;;5.86;100.00;97887.50;4989540;28;20228;-60
2023/03/27 00:47:32;;;;;;;1.53;0.60;;;;;;;5.84;100.00;97903.16;4975067;28;20227;-60
2023/03/27 00:50:01;;;;;;;2.30;0.70;;;;;;;5.88;100.00;97903.72;4998034;28;20309;-59
2023/03/27 00:52:34;;;;;;;1.90;0.67;;;;;;;5.78;100.00;97915.88;4976560;28;20232;-60
2023/03/27 00:55:13;;;;;;;2.07;0.80;;;;;;;5.78;100.00;97911.50;4996736;28;20592;-60
2023/03/27 00:57:44;;;;;;;1.27;0.90;;;;;;;5.76;100.00;97918.59;5001249;28;20237;-60
2023/03/27 01:00:17;;;;;;;1.73;0.80;;;;;;;5.78;100.00;97921.88;4977616;28;20584;-60
2023/03/27 01:02:49;;;;;;;1.97;1.13;;;;;;;5.75;100.00;97925.53;5010658;28;20228;-59
2023/03/27 01:05:18;;;;;;;0.80;0.50;;;;;;;5.71;100.00;97929.34;4978208;28;20650;-61
2023/03/27 01:07:47;;;;;;;0.97;0.70;;;;;;;5.74;100.00;97930.88;4999810;28;20228;-61
2023/03/27 01:10:16;;;;;;;2.50;0.93;;;;;;;5.74;100.00;97934.25;4993765;28;20217;-58
2023/03/27 01:12:59;;;;;;;1.10;0.73;;;;;;;5.74;100.00;97933.47;5014302;28;20347;-62
2023/03/27 01:15:37;;;;;;;1.77;0.93;;;;;;;5.75;100.00;97932.50;4998327;28;20814;-60
2023/03/27 01:18:23;;;;;;;1.20;0.90;;;;;;;5.76;100.00;97947.91;4939043;28;20245;-60
2023/03/27 01:21:24;;;;;;;2.73;0.87;;;;;;;5.74;100.00;97943.81;4985057;28;20224;-62
2023/03/27 01:24:31;;;;;;;1.23;1.00;;;;;;;5.77;100.00;97948.72;4948949;28;20222;-59
2023/03/27 01:27:17;;;;;;;1.00;0.70;;;;;;;5.75;100.00;97954.03;4902452;28;20317;-61
2023/03/27 01:30:05;;;;;;;2.23;1.17;;;;;;;5.81;100.00;97957.84;4981723;28;20225;-60
2023/03/27 01:33:17;;;;;;;3.57;1.00;;;;;;;5.76;100.00;97963.44;4991882;28;20224;-60
2023/03/27 01:36:17;;;;;;;1.90;0.83;;;;;;;5.83;100.00;97975.84;4940885;28;20225;-59
2023/03/27 01:39:27;;;;;;;1.10;0.90;;;;;;;5.83;100.00;97978.44;4975120;28;20906;-60
2023/03/27 01:42:03;;;;;;;1.47;1.00;;;;;;;5.78;100.00;97985.78;4994131;28;20619;-59
2023/03/27 01:44:38;;;;;;;2.17;1.30;;;;;;;5.74;100.00;97993.03;4999691;28;20225;-59
2023/03/27 01:47:10;;;;;;;3.27;0.97;;;;;;;5.73;100.00;97988.81;4991906;28;20239;-59
2023/03/27 01:49:44;;;;;;;2.57;1.60;;;;;;;5.73;100.00;98015.50;5012035;28;20231;-59
2023/03/27 01:52:17;;;;;;;3.73;1.70;;;;;;;5.74;100.00;98019.72;4993877;28;20258;-59
2023/03/27 01:54:49;;;;;;;6.63;2.17;;;;;;;5.57;100.00;98017.78;5015011;28;20550;-59
2023/03/27 01:57:22;;;;;;;7.03;2.97;;;;;;;5.61;100.00;98029.53;4997875;28;20231;-59
2023/03/27 01:59:55;;;;;;;9.70;2.93;;;;;;;5.57;100.00;98035.91;5013533;28;20239;-59
2023/03/27 02:02:29;;;;;;;10.00;3.33;;;;;;;5.55;100.00;98030.06;5017083;28;20284;-59
2023/03/27 02:05:00;;;;;;;7.03;3.00;;;;;;;5.56;100.00;98039.44;4996884;28;20231;-59
2023/03/27 02:07:35;;;;;;;9.07;3.00;;;;;;;5.52;100.00;98051.03;4988363;28;20244;-58
2023/03/27 02:10:07;;;;;;;6.70;3.70;;;;;;;5.50;100.00;98047.75;4987921;28;20234;-59
2023/03/27 02:12:40;;;;;;;9.97;3.87;;;;;;;5.49;100.00;98051.28;4999561;28;20233;-59
2023/03/27 02:15:13;;;;;;;7.63;4.03;;;;;;;5.38;100.00;98049.63;4991619;28;20228;-59
2023/03/27 02:17:44;;;;;;;10.30;4.17;;;;;;;5.38;100.00;98072.94;5017117;28;20231;-59
2023/03/27 02:20:14;;;;;;;10.77;3.47;;;;;;;5.37;100.00;98082.44;4994401;28;20570;-59
2023/03/27 02:22:42;;;;;;;7.40;3.83;;;;;;;5.35;100.00;98086.13;5000598;28;20764;-60
2023/03/27 02:25:26;;;;;;;9.27;3.90;;;;;;;5.29;100.00;98084.91;5012273;28;20252;-60
2023/03/27 02:28:07;;;;;;;13.67;4.43;;;;;;;5.27;100.00;98097.16;4996288;28;20232;-60
2023/03/27 02:30:40;;;;;;;8.73;4.67;;;;;;;5.22;100.00;98110.47;5017873;28;20814;-59
2023/03/27 02:33:17;;;;;;;13.33;4.63;;;;;;;5.24;100.00;98094.81;4999684;28;20224;-59
2023/03/27 02:35:53;;;;;;;13.07;3.97;;;;;;;5.18;98.61;98114.25;4997097;28;20266;-60
2023/03/27 02:38:28;;;;;;;9.87;4.07;;;;;;;5.14;99.22;98110.28;4983323;28;20233;-60
2023/03/27 02:41:04;;;;;;;8.13;4.17;;;;;;;5.13;99.73;98112.06;4991268;28;20279;-59
2023/03/27 02:43:55;;;;;;;9.93;4.27;;;;;;;5.10;97.83;98120.09;4997926;28;20888;-59
2023/03/27 02:46:41;;;;;;;7.57;4.10;;;;;;;5.06;98.99;98131.63;4987552;28;20700;-59
2023/03/27 02:49:13;;;;;;;11.87;5.10;;;;;;;4.99;99.99;98135.69;4995878;28;20243;-60
2023/03/27 02:51:43;;;;;;;8.37;3.90;;;;;;;4.99;98.30;98143.44;4997575;28;20231;-59
2023/03/27 02:54:13;;;;;;;8.43;3.83;;;;;;;4.96;97.24;98141.91;4995926;28;20236;-60
2023/03/27 02:56:46;;;;;;;8.80;3.90;;;;;;;4.94;100.00;98154.16;4989260;28;21058;-60
2023/03/27 02:59:29;;;;;;;5.60;3.83;;;;;;;4.92;100.00;98155.22;4987499;28;20247;-60
2023/03/27 03:04:45;;;;;;;10.57;4.33;;;;;;;4.95;95.84;98165.34;5342322;23;20783;-59
2023/03/27 03:07:28;;;;;;;11.83;4.07;;;;;;;4.95;98.05;98168.72;4950703;28;20247;-58
2023/03/27 03:09:55;;;;;;;9.27;4.10;;;;;;;4.95;98.35;98170.50;4951302;28;20344;-59
2023/03/27 03:12:22;;;;;;;10.63;4.90;;;;;;;4.88;100.00;98176.19;4966520;28;20319;-57
2023/03/27 03:14:51;;;;;;;9.50;4.30;;;;;;;4.88;99.62;98181.34;4955309;28;20225;-59
2023/03/27 03:17:17;;;;;;;7.63;3.33;;;;;;;4.90;98.65;98188.16;4965815;28;20293;-58
2023/03/27 03:19:45;;;;;;;8.27;3.60;;;;;;;4.92;100.00;98196.63;4965854;28;20708;-58
2023/03/27 03:22:12;;;;;;;12.03;4.73;;;;;;;4.87;100.00;98197.81;4962690;28;20257;-59
2023/03/27 03:24:42;;;;;;;10.90;4.43;;;;;;;4.85;100.00;98206.63;4965567;28;20234;-59
2023/03/27 03:27:11;;;;;;;10.80;3.63;;;;;;;4.88;95.13;98214.97;4973035;28;20233;-59
2023/03/27 03:29:51;;;;;;;7.53;3.50;;;;;;;4.86;92.30;98209.09;4961199;28;20238;-59
2023/03/27 03:32:25;;;;;;;6.70;3.30;;;;;;;4.84;91.91;98217.91;5208483;22;20267;-56
2023/03/27 03:34:52;;;;;;;8.23;3.60;;;;;;;4.90;95.02;98232.94;5005841;28;20212;-56
2023/03/27 03:37:19;;;;;;;11.33;3.57;;;;;;;4.84;94.81;98230.84;4993099;28;20236;-57
2023/03/27 03:39:46;;;;;;;7.23;3.90;;;;;;;4.81;97.24;98242.28;4994121;28;20228;-55
2023/03/27 03:42:15;;;;;;;10.30;4.33;;;;;;;4.80;100.00;98247.56;4981929;28;20295;-57
2023/03/27 03:44:41;;;;;;;7.47;3.77;;;;;;;4.73;100.00;98253.25;4994006;28;20237;-55
2023/03/27 03:47:21;;;;;;;8.00;3.13;;;;;;;4.74;100.00;98264.38;5002257;28;20252;-55
2023/03/27 03:49:48;;;;;;;8.23;3.27;;;;;;;4.72;100.00;98263.69;4991757;28;20238;-57
2023/03/27 03:52:15;;;;;;;13.80;7.47;;;;;;;4.67;100.00;98273.56;4978030;28;20232;-57
2023/03/27 03:54:42;;;;;;;21.63;11.33;;;;;;;4.64;100.00;98279.00;4977618;28;20248;-57
2023/03/27 03:57:08;;;;;;;9.97;3.67;;;;;;;4.63;100.00;98290.28;4991904;28;20236;-56
2023/03/27 03:59:35;;;;;;;10.73;3.50;;;;;;;4.56;100.00;98297.72;4994577;28;20244;-56
2023/03/27 04:02:28;;;;;;;13.37;3.47;;;;;;;4.59;95.33;98305.22;4998072;28;21528;-57
2023/03/27 04:04:59;;;;;;;9.37;3.10;;;;;;;4.52;98.18;98311.81;4969935;28;20228;-57
2023/03/27 04:07:30;;;;;;;8.57;3.30;;;;;;;4.45;100.00;98320.97;4992872;28;20344;-57
2023/03/27 04:10:12;;;;;;;9.43;3.20;;;;;;;4.16;100.00;98329.22;4990794;28;20248;-56
2023/03/27 04:12:38;;;;;;;9.47;3.07;;;;;;;4.02;100.00;98338.81;4993120;28;20290;-56
2023/03/27 04:15:11;;;;;;;13.37;3.77;;;;;;;4.00;100.00;98358.78;4971077;28;20260;-55
2023/03/27 04:18:08;;;;;;;9.07;3.40;;;;;;;3.96;100.00;98359.94;4991238;28;20236;-55
2023/03/27 04:20:38;;;;;;;11.87;4.30;;;;;;;3.66;100.00;98371.66;4999199;28;20310;-54
2023/03/27 04:23:09;;;;;;;10.03;3.40;;;;;;;3.62;100.00;98377.97;4994061;28;20232;-56
2023/03/27 04:25:38;;;;;;;17.37;3.40;;;;;;;3.57;100.00;98380.06;4998044;28;20240;-57
2023/03/27 04:28:09;;;;;;;13.38;3.72;;;;;;;3.58;100.00;98392.03;4995416;28;20524;-56
2023/03/27 04:30:43;;;;;;;13.40;3.60;;;;;;;3.53;100.00;98394.94;4979300;28;20232;-57
2023/03/27 04:33:38;;;;;;;8.70;3.00;;;;;;;3.56;100.00;98401.66;4973365;28;20238;-57
2023/03/27 04:36:13;;;;;;;15.57;3.90;;;;;;;3.57;100.00;98406.69;4980150;28;20238;-57
2023/03/27 04:38:56;;;;;;;14.73;3.60;;;;;;;3.56;100.00;98407.63;4983090;28;20232;-57
2023/03/27 04:41:23;;;;;;;8.93;3.70;;;;;;;3.59;100.00;98422.88;4977733;28;20241;-55
2023/03/27 04:43:50;;;;;;;15.33;3.37;;;;;;;3.62;100.00;98424.44;4994794;28;21664;-55
2023/03/27 04:46:17;;;;;;;14.27;4.63;;;;;;;3.61;100.00;98425.38;4980888;28;20253;-56
2023/03/27 04:48:53;;;;;;;13.07;4.03;;;;;;;3.56;100.00;98433.41;4980363;28;20240;-56
2023/03/27 04:51:44;;;;;;;7.87;2.77;;;;;;;3.58;100.00;98451.41;4997584;28;21810;-56
2023/03/27 04:54:12;;;;;;;6.93;2.93;;;;;;;3.52;100.00;98450.06;4976649;28;20227;-57
2023/03/27 04:56:44;;;;;;;6.93;2.83;;;;;;;3.59;100.00;98456.44;4998007;28;20236;-54
2023/03/27 04:59:11;;;;;;;13.47;2.70;;;;;;;3.56;100.00;98458.41;4976286;28;20241;-56
2023/03/27 05:01:38;;;;;;;10.83;2.80;;;;;;;3.48;100.00;98461.53;4980803;28;20248;-56
2023/03/27 05:04:39;;;;;;;6.33;1.90;;;;;;;3.42;95.56;98478.28;4967226;28;20241;-56
2023/03/27 05:07:15;;;;;;;10.23;2.43;;;;;;;3.42;94.96;98477.44;4978150;28;20243;-54
2023/03/27 05:09:42;;;;;;;8.67;2.00;;;;;;;3.39;91.66;98487.06;4981925;28;20235;-56
2023/03/27 05:12:09;;;;;;;4.80;1.50;;;;;;;3.38;86.45;98494.91;4979797;28;20852;-56
2023/03/27 05:14:47;;;;;;;8.77;1.90;;;;;;;3.28;87.58;98512.78;4979325;28;20244;-56
2023/03/27 05:17:28;;;;;;;12.83;1.73;;;;;;;3.22;82.45;98518.38;4995177;28;20277;-56
2023/03/27 05:19:56;;;;;;;6.13;1.30;;;;;;;3.14;83.28;98526.66;4977730;28;20233;-56
2023/03/27 05:22:22;;;;;;;6.17;1.10;;;;;;;3.04;83.23;98530.78;4979614;28;20270;-57
2023/03/27 05:24:57;;;;;;;6.13;1.13;;;;;;;2.89;80.27;98550.72;4977490;28;20243;-56
2023/03/27 05:27:27;;;;;;;7.20;1.23;;;;;;;2.84;75.38;98561.34;5003708;28;20788;-56
2023/03/27 05:29:56;;;;;;;8.23;1.48;;;;;;;2.84;71.41;98560.53;4992932;28;20795;-57
2023/03/27 05:32:24;;;;;;;8.40;1.50;;;;;;;2.74;75.86;98576.59;4975380;28;20239;-55
2023/03/27 05:35:03;;;;;;;7.70;1.23;;;;;;;2.68;72.83;98579.59;4976254;28;20225;-56
2023/03/27 05:37:37;;;;;;;8.60;1.33;;;;;;;2.55;80.98;98577.00;4996368;28;20244;-56
2023/03/27 05:40:23;;;;;;;54.90;38.57;;;;;;;2.39;77.61;98584.09;4971149;28;20774;-56
2023/03/27 05:42:51;;;;;;;25.27;9.63;;;;;;;2.31;71.26;98589.72;4978458;28;20246;-54
2023/03/27 05:45:18;;;;;;;5.43;1.00;;;;;;;2.20;72.92;98604.09;5002378;28;20238;-56
2023/03/27 05:47:46;;;;;;;6.13;1.50;;;;;;;2.19;75.67;98607.59;4995662;28;20233;-56
2023/03/27 05:50:15;;;;;;;2.83;0.90;;;;;;;2.08;74.60;98620.38;4976458;28;20239;-54
2023/03/27 05:52:42;;;;;;;2.33;0.80;;;;;;;2.13;72.74;98620.88;4977515;28;20234;-55
2023/03/27 05:55:10;;;;;;;6.03;1.40;;;;;;;2.10;71.24;98627.97;4977004;28;20688;-56
2023/03/27 05:57:39;;;;;;;5.43;1.30;;;;;;;2.03;72.11;98630.13;4979921;28;20237;-55
2023/03/27 06:00:12;;;;;;;5.33;1.40;;;;;;;1.93;77.03;98637.59;4975654;28;20259;-54
2023/03/27 06:02:43;;;;;;;5.33;1.10;;;;;;;1.84;78.62;98644.13;4980050;28;20468;-56
2023/03/27 06:05:13;;;;;;;6.50;1.00;;;;;;;1.72;77.66;98657.75;5000667;28;20257;-56
2023/03/27 06:07:44;;;;;;;5.80;0.80;;;;;;;1.59;81.46;98663.66;4977473;28;20328;-56
2023/03/27 06:10:13;;;;;;;19.50;7.00;;;;;;;1.55;80.47;98674.22;4974536;28;20763;-56
2023/03/27 06:12:43;;;;;;;6.93;1.87;;;;;;;1.47;85.21;98693.53;4981152;28;20236;-56
2023/03/27 06:15:30;;;;;;;6.67;1.80;;;;;;;1.32;86.26;98690.09;4994107;28;20232;-56
2023/03/27 06:18:15;;;;;;;13.27;7.17;;;;;;;1.31;81.18;98703.06;4994504;28;20713;-53
2023/03/27 06:20:42;;;;;;;6.23;1.27;;;;;;;1.30;89.36;98709.13;4976086;28;20233;-54
2023/03/27 06:23:10;;;;;;;5.50;1.53;;;;;;;1.26;92.07;98713.59;4993683;28;20307;-56
2023/03/27 06:25:38;;;;;;;5.50;1.23;;;;;;;1.14;95.62;98710.00;4975017;28;20718;-56
2023/03/27 06:28:08;;;;;;;3.78;0.95;;;;;;;1.07;95.69;98715.56;4994161;28;20962;-56
2023/03/27 06:30:44;;;;;;;7.07;1.13;;;;;;;1.18;95.26;98724.34;4980632;28;20264;-55
2023/03/27 06:33:40;;;;;;;5.17;1.13;;;;;;;1.37;92.16;98737.88;4966054;28;20247;-54
2023/03/27 06:36:16;;;;;;;6.87;1.10;;;;;;;1.33;96.39;98752.66;4976998;28;20248;-55
2023/03/27 06:38:49;;;;;;;4.93;1.23;;;;;;;1.44;98.27;98755.44;4982998;28;20236;-56
2023/03/27 06:41:16;;;;;;;11.40;5.40;;;;;;;1.54;94.57;98755.72;4992298;28;20288;-56
2023/03/27 06:43:58;;;;;;;11.33;4.83;;;;;;;1.72;90.38;98760.69;4977327;28;20239;-55
2023/03/27 06:46:33;;;;;;;10.67;1.87;;;;;;;1.94;88.26;98764.56;4994880;28;20643;-56
2023/03/27 06:49:12;;;;;;;6.50;1.30;;;;;;;2.02;89.61;98759.78;4975625;28;20233;-56
2023/03/27 06:51:39;;;;;;;8.60;1.87;;;;;;;2.21;90.02;98762.88;4978062;28;20231;-56
2023/03/27 06:54:08;;;;;;;13.23;6.23;;;;;;;2.39;86.65;98764.41;4992182;28;20236;-55
2023/03/27 06:56:40;;;;;;;10.83;2.27;;;;;;;2.43;79.39;98771.03;4994382;28;20228;-55
2023/03/27 06:59:27;;;;;;;4.87;1.33;;;;;;;2.61;80.94;98777.63;4977722;28;20781;-56
2023/03/27 07:01:58;;;;;;;8.87;1.13;;;;;;;2.79;79.67;98778.19;4976181;28;20264;-56
2023/03/27 07:04:26;;;;;;;8.63;3.47;;;;;;;2.84;76.38;98780.47;4980474;28;20237;-56
2023/03/27 07:07:13;;;;;;;15.33;4.37;;;;;;;2.95;76.44;98796.09;4978010;28;20794;-56
2023/03/27 07:09:43;;;;;;;15.63;2.00;;;;;;;3.27;76.55;98797.50;4974822;28;20240;-56
2023/03/27 07:12:12;;;;;;;9.83;1.20;;;;;;;3.23;74.29;98803.78;4992348;28;20228;-55
2023/03/27 07:14:40;;;;;;;7.23;1.30;;;;;;;3.31;74.59;98801.53;4994743;28;20557;-56
2023/03/27 07:17:07;;;;;;;9.50;1.20;;;;;;;3.32;76.19;98812.69;4992879;28;20581;-55
2023/03/27 07:19:46;;;;;;;16.77;7.17;;;;;;;3.25;73.63;98807.94;4994704;28;20235;-53
2023/03/27 07:22:14;;;;;;;34.23;3.00;;;;;;;3.36;76.42;98811.56;4976558;28;20245;-57
2023/03/27 07:24:42;;;;;;;13.87;2.17;;;;;;;3.34;76.18;98809.06;4993904;28;20236;-54
2023/03/27 07:27:10;;;;;;;17.73;1.70;;;;;;;3.38;75.96;98822.63;4974755;28;20224;-54
2023/03/27 07:29:37;;;;;;;8.47;1.33;;;;;;;3.40;75.74;98828.50;4979294;28;20244;-56
2023/03/27 07:32:04;;;;;;;10.03;1.60;;;;;;;3.31;73.45;98832.50;4970593;28;20220;-55
2023/03/27 07:34:37;;;;;;;9.33;1.90;;;;;;;3.44;71.82;98840.28;4977658;28;20292;-56
2023/03/27 07:37:03;;;;;;;5.77;1.90;;;;;;;3.66;73.43;98851.78;4976310;28;21082;-55
2023/03/27 07:39:31;;;;;;;10.60;2.03;;;;;;;3.58;73.40;98861.78;4977596;28;21166;-56
2023/03/27 07:41:59;;;;;;;9.60;2.17;;;;;;;3.59;74.71;98866.84;4973435;28;20874;-56
2023/03/27 07:44:39;;;;;;;11.37;1.67;;;;;;;3.86;76.05;98870.28;4993487;28;20232;-54
2023/03/27 07:47:08;;;;;;;10.03;1.70;;;;;;;3.96;70.26;98868.72;4973238;28;20632;-55
2023/03/27 07:49:35;;;;;;;6.87;1.40;;;;;;;3.39;71.02;98868.94;4994653;28;20702;-56
2023/03/27 07:52:07;;;;;;;12.33;1.57;;;;;;;3.74;71.32;98875.31;4975074;28;20283;-56
2023/03/27 07:54:38;;;;;;;9.97;1.67;;;;;;;3.79;68.66;98873.25;4977996;28;20235;-56
2023/03/27 07:57:09;;;;;;;8.03;1.60;;;;;;;3.75;67.81;98876.16;4970520;28;20303;-56
2023/03/27 07:59:58;;;;;;;5.27;2.00;;;;;;;3.71;71.91;98883.25;4991351;28;20252;-54
2023/03/27 08:02:44;;;;;;;9.50;1.30;;;;;;;3.64;71.54;98890.59;4978725;28;20266;-56
2023/03/27 08:05:12;;;;;;;7.37;1.60;;;;;;;3.69;68.13;98896.28;4976064;28;20224;-56
2023/03/27 08:07:44;;;;;;;7.20;1.67;;;;;;;3.58;69.79;98896.16;4977435;28;20696;-56
2023/03/27 08:10:11;;;;;;;7.23;1.77;;;;;;;3.51;71.73;98902.63;4974699;28;20719;-54
2023/03/27 08:12:53;;;;;;;7.03;1.50;;;;;;;3.19;70.37;98903.78;4975054;28;20248;-56
2023/03/27 08:15:20;;;;;;;5.47;1.20;;;;;;;3.36;72.56;98907.84;4977750;28;20236;-56
2023/03/27 08:17:52;;;;;;;12.60;1.80;;;;;;;3.38;68.60;98916.31;4976904;28;20225;-57
2023/03/27 08:20:22;;;;;;;7.13;1.53;;;;;;;3.39;69.74;98917.16;4973864;28;20247;-56
2023/03/27 08:22:50;;;;;;;5.67;1.90;;;;;;;3.40;69.45;98914.47;4971670;28;20948;-56
2023/03/27 08:25:33;;;;;;;12.63;3.37;;;;;;;3.53;67.41;98918.84;4979270;28;20621;-56
2023/03/27 08:28:05;;;;;;;5.17;1.47;;;;;;;3.80;65.90;98931.72;4996737;28;20708;-56
2023/03/27 08:30:31;;;;;;;7.80;1.40;;;;;;;3.75;67.42;98932.97;4977700;28;21191;-56
2023/03/27 08:32:59;;;;;;;4.73;1.60;;;;;;;3.91;67.21;98928.47;4990910;28;20605;-54
2023/03/27 08:35:26;;;;;;;9.53;1.77;;;;;;;4.24;66.18;98926.31;4978732;28;20268;-54
2023/03/27 08:37:52;;;;;;;13.13;2.53;;;;;;;4.51;67.29;98939.13;4976798;28;20246;-56
2023/03/27 08:40:27;;;;;;;13.73;2.10;;;;;;;4.54;64.15;98943.28;4980842;28;20324;-54
2023/03/27 08:43:19;;;;;;;12.70;1.60;;;;;;;4.81;64.83;98939.69;4973531;28;20719;-56
2023/03/27 08:45:49;;;;;;;10.27;1.50;;;;;;;4.85;64.54;98938.56;4992730;28;20322;-57
2023/03/27 08:48:26;;;;;;;7.30;1.20;;;;;;;4.77;64.62;98943.47;4974079;28;20608;-55
2023/03/27 08:50:58;;;;;;;8.03;1.37;;;;;;;5.12;66.07;98950.50;4990583;28;20336;-54
2023/03/27 08:53:33;;;;;;;9.80;1.30;;;;;;;5.47;64.26;98944.59;4994655;28;20241;-55
2023/03/27 08:56:03;;;;;;;7.93;1.30;;;;;;;5.79;59.31;98956.13;4972875;28;20722;-57
2023/03/27 08:58:40;;;;;;;6.20;1.20;;;;;;;5.71;54.83;98964.47;4994178;28;20695;-57
2023/03/27 09:01:32;;;;;;;6.83;1.57;;;;;;;5.35;56.87;98961.81;4969894;28;20229;-56
2023/03/27 09:04:11;;;;;;;7.37;1.30;;;;;;;5.14;58.29;98965.00;4991193;28;20235;-56
2023/03/27 09:06:52;;;;;;;10.80;1.80;;;;;;;4.43;59.74;98967.25;5004024;28;21135;-54
2023/03/27 09:09:31;;;;;;;19.97;5.97;;;;;;;3.97;62.10;98981.44;4975651;28;20224;-54
2023/03/27 09:12:04;;;;;;;9.50;1.80;;;;;;;4.04;63.53;98985.28;4993271;28;20233;-55
2023/03/27 09:14:40;;;;;;;14.70;9.77;;;;;;;3.82;63.05;98981.50;4980747;28;20230;-56
2023/03/27 09:17:15;;;;;;;4.83;1.33;;;;;;;3.88;59.65;98982.03;4975306;28;20672;-56
2023/03/27 09:19:50;;;;;;;9.80;2.00;;;;;;;3.87;62.68;98983.81;4981763;28;20238;-56
2023/03/27 09:22:23;;;;;;;8.43;3.67;;;;;;;4.13;63.04;98992.44;4980992;28;20235;-56
2023/03/27 09:25:20;;;;;;;6.43;1.93;;;;;;;4.69;60.70;98993.94;4979015;28;20711;-56
2023/03/27 09:28:17;;;;;;;8.60;1.60;;;;;;;5.21;54.80;98986.09;4978753;28;22379;-57
2023/03/27 09:30:53;;;;;;;4.63;1.17;;;;;;;5.57;59.15;98987.00;4993884;28;20339;-56
2023/03/27 09:33:30;;;;;;;5.40;0.73;;;;;;;5.50;54.73;98985.78;4980248;28;20317;-56
2023/03/27 09:35:58;;;;;;;6.30;1.30;;;;;;;5.58;55.50;98985.25;4993996;28;20249;-55
2023/03/27 09:38:32;;;;;;;4.47;1.13;;;;;;;5.52;53.04;98989.09;4996380;28;20697;-56
2023/03/27 09:41:03;;;;;;;8.57;1.50;;;;;;;5.43;54.23;98987.97;4976856;28;20317;-55
2023/03/27 09:43:40;;;;;;;5.83;1.27;;;;;;;5.73;55.23;98994.50;4978396;28;20233;-56
2023/03/27 09:46:11;;;;;;;2.33;1.30;;;;;;;5.90;52.85;99003.63;4993404;28;20655;-54
2023/03/27 09:48:45;;;;;;;7.27;2.53;;;;;;;5.88;53.83;98999.50;4976250;28;20348;-55
2023/03/27 09:51:38;;;;;;;7.00;1.93;;;;;;;5.74;55.34;99009.09;4978822;28;20235;-54
2023/03/27 09:54:07;;;;;;;7.37;2.77;;;;;;;5.83;57.33;99012.78;4972505;28;20257;-54
2023/03/27 09:56:37;;;;;;;10.97;1.90;;;;;;;6.02;55.80;99011.47;4978486;28;20344;-54
2023/03/27 09:59:11;;;;;;;10.40;1.80;;;;;;;6.10;52.27;99016.94;4972850;28;20483;-54
2023/03/27 10:01:46;;;;;;;7.83;2.60;;;;;;;6.16;54.73;99013.88;4974269;28;20229;-56
2023/03/27 10:04:18;;;;;;;8.90;2.90;;;;;;;6.13;53.41;99011.53;4973508;28;20228;-56
2023/03/27 10:06:56;;;;;;;7.90;1.40;;;;;;;6.04;52.47;99027.75;4975473;28;20225;-54
2023/03/27 10:09:33;;;;;;;4.17;1.20;;;;;;;6.04;49.16;99019.97;4979265;28;20292;-56
2023/03/27 10:12:10;;;;;;;6.17;1.47;;;;;;;5.74;51.65;99029.00;4976773;28;20692;-56
2023/03/27 10:14:40;;;;;;;6.37;1.40;;;;;;;5.89;49.20;99019.31;4975374;28;20233;-56
2023/03/27 10:17:21;;;;;;;6.00;1.40;;;;;;;5.84;50.91;99026.56;4972681;28;20884;-54
2023/03/27 10:20:07;;;;;;;6.43;1.33;;;;;;;6.14;46.14;99035.69;4971675;28;20213;-56
2023/03/27 10:22:39;;;;;;;2.97;1.10;;;;;;;6.21;51.73;99031.72;4993277;28;20247;-56
2023/03/27 10:25:16;;;;;;;5.03;1.00;;;;;;;6.42;51.47;99037.06;4993429;28;20250;-56
2023/03/27 10:27:52;;;;;;;5.93;1.30;;;;;;;6.28;50.44;99043.28;4976922;28;20708;-54
2023/03/27 10:30:35;;;;;;;5.50;1.10;;;;;;;6.48;49.32;99049.56;4995492;28;20275;-53
2023/03/27 10:33:30;;;;;;;5.50;1.27;;;;;;;6.09;47.81;99040.38;4977438;28;20325;-56
2023/03/27 10:36:11;;;;;;;5.83;1.60;;;;;;;6.19;48.52;99054.31;4976497;28;20243;-56
2023/03/27 10:38:41;;;;;;;4.60;1.37;;;;;;;6.23;46.35;99047.13;4994487;28;20244;-54
2023/03/27 10:41:27;;;;;;;7.40;1.40;;;;;;;6.24;46.74;99043.59;4975894;28;20232;-54
2023/03/27 10:43:56;;;;;;;4.00;0.90;;;;;;;6.44;45.25;99052.50;4975298;28;20213;-54
2023/03/27 10:46:26;;;;;;;8.20;1.80;;;;;;;6.27;48.13;99054.59;4993608;28;20221;-54
2023/03/27 10:49:03;;;;;;;7.20;1.20;;;;;;;6.36;48.57;99047.88;4973564;28;20237;-54
2023/03/27 10:51:38;;;;;;;7.73;1.57;;;;;;;6.58;50.22;99054.91;4977706;28;20319;-55
2023/03/27 10:54:15;;;;;;;5.00;1.10;;;;;;;6.65;44.46;99050.09;4975141;28;23280;-55
2023/03/27 10:56:56;;;;;;;4.27;1.63;;;;;;;6.83;50.16;99050.47;4974570;28;20303;-54
2023/03/27 10:59:29;;;;;;;4.77;1.20;;;;;;;6.93;48.09;99042.78;4974312;28;20237;-56
2023/03/27 11:02:02;;;;;;;4.67;1.30;;;;;;;6.72;48.23;99042.66;4973848;28;20237;-54
2023/03/27 11:04:42;;;;;;;3.93;1.00;;;;;;;6.85;43.48;99045.97;4994853;28;20719;-54
2023/03/27 11:07:16;;;;;;;2.80;0.80;;;;;;;7.07;45.27;99049.53;4974040;28;20248;-56
2023/03/27 11:09:56;;;;;;;7.37;1.57;;;;;;;6.93;45.31;99056.59;4994778;28;20244;-54
2023/03/27 11:12:31;;;;;;;4.93;1.90;;;;;;;7.14;47.53;99050.72;4998275;28;20810;-56
2023/03/27 11:15:03;;;;;;;6.57;2.33;;;;;;;7.30;48.67;99054.72;4973754;28;20236;-55
2023/03/27 11:17:37;;;;;;;4.27;1.20;;;;;;;7.65;45.95;99056.31;4977437;28;20229;-55
2023/03/27 11:20:32;;;;;;;8.90;1.37;;;;;;;7.65;46.48;99059.75;4976960;28;20230;-55
2023/03/27 11:23:18;;;;;;;4.57;1.20;;;;;;;7.79;44.48;99060.44;4991413;28;20315;-55
2023/03/27 11:26:07;;;;;;;5.77;0.90;;;;;;;8.45;41.05;99067.25;4975714;28;20241;-56
2023/03/27 11:28:42;;;;;;;7.00;1.40;;;;;;;8.47;43.28;99064.53;4995185;28;20708;-56
2023/03/27 11:31:16;;;;;;;7.57;1.63;;;;;;;8.60;44.86;99069.56;4970309;28;20833;-56
2023/03/27 11:33:51;;;;;;;5.03;1.13;;;;;;;8.36;41.62;99073.22;4974467;28;20224;-56
2023/03/27 11:36:33;;;;;;;4.17;1.10;;;;;;;8.18;41.13;99078.16;4992922;28;20244;-55
2023/03/27 11:39:21;;;;;;;6.63;1.27;;;;;;;8.08;48.81;99080.66;4990019;28;20295;-60
2023/03/27 11:41:53;;;;;;;9.60;1.73;;;;;;;8.28;47.69;99072.06;4984882;28;20241;-60
2023/03/27 11:44:23;;;;;;;4.57;1.30;;;;;;;8.74;46.52;99073.63;4964505;28;20229;-59
2023/03/27 11:47:39;;;;;;;4.33;1.80;;;;;;;9.09;44.46;99081.06;4972410;28;20752;-54
2023/03/27 11:50:20;;;;;;;7.33;1.60;;;;;;;8.90;44.66;99087.00;4971922;28;20919;-55
2023/03/27 11:53:01;;;;;;;6.63;1.50;;;;;;;8.53;48.69;99085.69;4969588;28;20236;-56
2023/03/27 11:56:02;;;;;;;3.17;1.20;;;;;;;8.62;44.92;99097.09;4971673;28;20348;-56
2023/03/27 11:58:35;;;;;;;4.67;1.13;;;;;;;8.59;44.82;99099.16;4977122;28;20867;-56
2023/03/27 12:01:11;;;;;;;9.13;1.77;;;;;;;8.17;46.32;99095.50;4990251;28;20227;-56
2023/03/27 12:04:09;;;;;;;5.07;1.10;;;;;;;8.42;45.01;99109.13;4975485;28;20320;-56
2023/03/27 12:07:09;;;;;;;7.73;1.33;;;;;;;8.32;47.08;99108.22;4971342;28;20237;-56
2023/03/27 12:09:54;;;;;;;6.97;1.50;;;;;;;8.15;47.62;99109.59;4976709;28;20221;-56
2023/03/27 12:12:56;;;;;;;6.10;1.00;;;;;;;8.33;48.65;99118.53;4975780;28;20257;-56
2023/03/27 12:15:38;;;;;;;2.90;0.90;;;;;;;8.52;49.44;99110.06;4974643;28;20640;-56